sensor_id;sensor_type;location;lat;lon;timestamp;pressure;altitude;pressure_sealevel;temperature;humidity
73220;BME280;61434;43.538;-5.688;2022-11-27T00:00:54;102100.34;;;12.80;57.21
73220;BME280;61434;43.538;-5.688;2022-11-27T00:03:20;102094.34;;;12.88;57.15
73220;BME280;61434;43.538;-5.688;2022-11-27T00:05:52;102102.66;;;12.98;56.83
73220;BME280;61434;43.538;-5.688;2022-11-27T00:08:18;102105.00;;;13.02;56.19
73220;BME280;61434;43.538;-5.688;2022-11-27T00:10:43;102109.38;;;12.92;56.12
73220;BME280;61434;43.538;-5.688;2022-11-27T00:13:08;102102.78;;;12.96;56.01
73220;BME280;61434;43.538;-5.688;2022-11-27T00:15:33;102099.66;;;12.90;56.25
73220;BME280;61434;43.538;-5.688;2022-11-27T00:17:59;102104.75;;;12.81;56.68
73220;BME280;61434;43.538;-5.688;2022-11-27T00:20:24;102108.31;;;12.82;56.45
73220;BME280;61434;43.538;-5.688;2022-11-27T00:22:49;102108.63;;;12.90;56.43
73220;BME280;61434;43.538;-5.688;2022-11-27T00:25:15;102102.91;;;12.82;56.45
73220;BME280;61434;43.538;-5.688;2022-11-27T00:27:40;102107.47;;;12.81;56.41
73220;BME280;61434;43.538;-5.688;2022-11-27T00:30:05;102106.47;;;12.82;55.87
73220;BME280;61434;43.538;-5.688;2022-11-27T00:32:31;102100.97;;;12.84;56.44
73220;BME280;61434;43.538;-5.688;2022-11-27T00:34:56;102096.88;;;12.78;56.51
73220;BME280;61434;43.538;-5.688;2022-11-27T00:37:21;102096.56;;;12.70;57.21
73220;BME280;61434;43.538;-5.688;2022-11-27T00:39:47;102089.66;;;12.66;57.84
73220;BME280;61434;43.538;-5.688;2022-11-27T00:42:12;102091.72;;;12.63;57.63
73220;BME280;61434;43.538;-5.688;2022-11-27T00:44:37;102092.25;;;12.55;57.88
73220;BME280;61434;43.538;-5.688;2022-11-27T00:47:03;102076.72;;;12.46;57.87
73220;BME280;61434;43.538;-5.688;2022-11-27T00:49:28;102086.75;;;12.31;58.74
73220;BME280;61434;43.538;-5.688;2022-11-27T00:51:54;102078.66;;;12.44;58.60
73220;BME280;61434;43.538;-5.688;2022-11-27T00:54:21;102077.59;;;12.46;58.16
73220;BME280;61434;43.538;-5.688;2022-11-27T00:56:46;102080.50;;;12.30;58.44
73220;BME280;61434;43.538;-5.688;2022-11-27T00:59:12;102066.34;;;12.40;58.78
73220;BME280;61434;43.538;-5.688;2022-11-27T01:01:39;102063.09;;;12.35;58.88
73220;BME280;61434;43.538;-5.688;2022-11-27T01:04:05;102067.31;;;12.39;58.65
73220;BME280;61434;43.538;-5.688;2022-11-27T01:06:31;102065.81;;;12.35;58.73
73220;BME280;61434;43.538;-5.688;2022-11-27T01:08:56;102063.53;;;12.28;58.49
73220;BME280;61434;43.538;-5.688;2022-11-27T01:11:23;102048.66;;;12.23;58.83
73220;BME280;61434;43.538;-5.688;2022-11-27T01:13:52;102044.75;;;12.27;58.92
73220;BME280;61434;43.538;-5.688;2022-11-27T01:16:20;102044.19;;;12.35;58.55
73220;BME280;61434;43.538;-5.688;2022-11-27T01:18:46;102034.69;;;12.16;59.30
73220;BME280;61434;43.538;-5.688;2022-11-27T01:21:12;102031.25;;;12.27;58.72
73220;BME280;61434;43.538;-5.688;2022-11-27T01:23:38;102035.56;;;12.29;59.16
73220;BME280;61434;43.538;-5.688;2022-11-27T01:26:04;102029.94;;;12.20;59.23
73220;BME280;61434;43.538;-5.688;2022-11-27T01:28:30;102036.31;;;12.31;59.33
73220;BME280;61434;43.538;-5.688;2022-11-27T01:30:55;102031.97;;;12.42;58.50
73220;BME280;61434;43.538;-5.688;2022-11-27T01:33:20;102029.69;;;12.36;59.05
73220;BME280;61434;43.538;-5.688;2022-11-27T01:35:53;102027.44;;;12.29;58.95
73220;BME280;61434;43.538;-5.688;2022-11-27T01:38:18;102023.88;;;12.29;59.14
73220;BME280;61434;43.538;-5.688;2022-11-27T01:40:44;102020.72;;;12.35;58.77
73220;BME280;61434;43.538;-5.688;2022-11-27T01:43:11;102016.53;;;12.31;59.20
73220;BME280;61434;43.538;-5.688;2022-11-27T01:45:38;102017.41;;;12.19;59.24
73220;BME280;61434;43.538;-5.688;2022-11-27T01:48:03;102017.31;;;12.20;58.63
73220;BME280;61434;43.538;-5.688;2022-11-27T01:50:30;102010.81;;;12.10;59.09
73220;BME280;61434;43.538;-5.688;2022-11-27T01:53:02;102012.13;;;12.17;58.76
73220;BME280;61434;43.538;-5.688;2022-11-27T01:55:33;102011.94;;;12.07;58.96
73220;BME280;61434;43.538;-5.688;2022-11-27T01:58:02;102006.81;;;12.16;58.86
73220;BME280;61434;43.538;-5.688;2022-11-27T02:00:29;101999.81;;;12.13;58.54
73220;BME280;61434;43.538;-5.688;2022-11-27T02:02:54;102000.34;;;12.18;58.44
73220;BME280;61434;43.538;-5.688;2022-11-27T02:05:21;102003.91;;;12.31;57.86
73220;BME280;61434;43.538;-5.688;2022-11-27T02:07:47;101996.78;;;12.18;58.76
73220;BME280;61434;43.538;-5.688;2022-11-27T02:10:13;101997.75;;;12.17;58.73
73220;BME280;61434;43.538;-5.688;2022-11-27T02:13:00;101985.00;;;12.19;58.38
73220;BME280;61434;43.538;-5.688;2022-11-27T02:17:59;101984.28;;;12.04;58.91
73220;BME280;61434;43.538;-5.688;2022-11-27T02:20:32;101985.53;;;12.11;58.64
73220;BME280;61434;43.538;-5.688;2022-11-27T02:25:30;101975.59;;;12.12;58.37
73220;BME280;61434;43.538;-5.688;2022-11-27T02:30:33;101954.03;;;11.99;59.77
73220;BME280;61434;43.538;-5.688;2022-11-27T02:33:01;101946.34;;;12.18;58.74
73220;BME280;61434;43.538;-5.688;2022-11-27T02:35:31;101948.72;;;12.10;59.07
73220;BME280;61434;43.538;-5.688;2022-11-27T02:37:59;101946.78;;;11.99;59.13
73220;BME280;61434;43.538;-5.688;2022-11-27T02:40:30;101947.44;;;12.03;59.43
73220;BME280;61434;43.538;-5.688;2022-11-27T02:43:06;101944.97;;;12.00;59.58
73220;BME280;61434;43.538;-5.688;2022-11-27T02:45:34;101943.09;;;12.13;58.89
73220;BME280;61434;43.538;-5.688;2022-11-27T02:48:01;101949.63;;;11.98;59.22
73220;BME280;61434;43.538;-5.688;2022-11-27T02:50:27;101953.06;;;12.13;59.24
73220;BME280;61434;43.538;-5.688;2022-11-27T02:52:54;101951.75;;;12.05;58.93
73220;BME280;61434;43.538;-5.688;2022-11-27T02:55:24;101947.97;;;12.08;59.36
73220;BME280;61434;43.538;-5.688;2022-11-27T02:57:51;101954.13;;;12.10;59.06
73220;BME280;61434;43.538;-5.688;2022-11-27T03:00:17;101954.97;;;12.11;59.29
73220;BME280;61434;43.538;-5.688;2022-11-27T03:02:45;101947.66;;;12.13;58.95
73220;BME280;61434;43.538;-5.688;2022-11-27T03:05:12;101929.47;;;12.15;58.97
73220;BME280;61434;43.538;-5.688;2022-11-27T03:07:40;101928.41;;;12.17;58.98
73220;BME280;61434;43.538;-5.688;2022-11-27T03:10:08;101921.50;;;12.00;59.14
73220;BME280;61434;43.538;-5.688;2022-11-27T03:12:34;101927.78;;;12.01;59.17
73220;BME280;61434;43.538;-5.688;2022-11-27T03:15:00;101930.94;;;11.95;59.25
73220;BME280;61434;43.538;-5.688;2022-11-27T03:17:47;101932.53;;;11.97;59.32
73220;BME280;61434;43.538;-5.688;2022-11-27T03:22:39;101930.16;;;12.05;58.96
73220;BME280;61434;43.538;-5.688;2022-11-27T03:25:05;101920.84;;;12.10;58.44
73220;BME280;61434;43.538;-5.688;2022-11-27T03:27:31;101905.63;;;12.09;58.49
73220;BME280;61434;43.538;-5.688;2022-11-27T03:29:59;101909.31;;;12.07;58.37
73220;BME280;61434;43.538;-5.688;2022-11-27T03:32:25;101899.78;;;12.02;58.62
73220;BME280;61434;43.538;-5.688;2022-11-27T03:34:51;101905.19;;;12.02;58.40
73220;BME280;61434;43.538;-5.688;2022-11-27T03:37:16;101912.56;;;12.00;58.52
73220;BME280;61434;43.538;-5.688;2022-11-27T03:39:42;101899.47;;;12.06;58.10
73220;BME280;61434;43.538;-5.688;2022-11-27T03:42:30;101895.72;;;11.96;57.85
73220;BME280;61434;43.538;-5.688;2022-11-27T03:53:02;101882.41;;;12.06;57.27
73220;BME280;61434;43.538;-5.688;2022-11-27T03:58:01;101878.31;;;12.00;57.48
73220;BME280;61434;43.538;-5.688;2022-11-27T04:00:33;101875.75;;;11.99;57.45
73220;BME280;61434;43.538;-5.688;2022-11-27T04:03:00;101877.88;;;11.81;57.87
73220;BME280;61434;43.538;-5.688;2022-11-27T04:05:26;101878.84;;;11.93;57.64
73220;BME280;61434;43.538;-5.688;2022-11-27T04:07:51;101876.63;;;11.87;58.03
73220;BME280;61434;43.538;-5.688;2022-11-27T04:10:17;101873.69;;;11.90;57.70
73220;BME280;61434;43.538;-5.688;2022-11-27T04:12:42;101874.88;;;11.98;57.43
73220;BME280;61434;43.538;-5.688;2022-11-27T04:15:08;101876.28;;;11.91;57.52
73220;BME280;61434;43.538;-5.688;2022-11-27T04:17:33;101873.47;;;11.93;58.11
73220;BME280;61434;43.538;-5.688;2022-11-27T04:19:58;101865.59;;;11.90;57.93
73220;BME280;61434;43.538;-5.688;2022-11-27T04:22:24;101862.75;;;11.78;58.38
73220;BME280;61434;43.538;-5.688;2022-11-27T04:24:49;101853.50;;;11.82;58.56
73220;BME280;61434;43.538;-5.688;2022-11-27T04:27:15;101851.59;;;11.85;58.42
73220;BME280;61434;43.538;-5.688;2022-11-27T04:29:40;101855.25;;;11.84;58.46
73220;BME280;61434;43.538;-5.688;2022-11-27T04:32:06;101844.41;;;11.96;57.73
73220;BME280;61434;43.538;-5.688;2022-11-27T04:34:31;101842.69;;;11.95;58.50
73220;BME280;61434;43.538;-5.688;2022-11-27T04:36:57;101841.63;;;11.98;58.12
73220;BME280;61434;43.538;-5.688;2022-11-27T04:39:22;101842.81;;;11.94;58.21
73220;BME280;61434;43.538;-5.688;2022-11-27T04:41:47;101837.09;;;11.86;58.50
73220;BME280;61434;43.538;-5.688;2022-11-27T04:44:13;101845.72;;;11.91;58.46
73220;BME280;61434;43.538;-5.688;2022-11-27T04:46:38;101838.94;;;11.85;58.86
73220;BME280;61434;43.538;-5.688;2022-11-27T04:49:04;101837.63;;;11.91;58.31
73220;BME280;61434;43.538;-5.688;2022-11-27T04:51:29;101834.72;;;11.94;58.72
73220;BME280;61434;43.538;-5.688;2022-11-27T04:53:55;101833.84;;;11.93;58.37
73220;BME280;61434;43.538;-5.688;2022-11-27T04:56:20;101834.41;;;11.86;58.64
73220;BME280;61434;43.538;-5.688;2022-11-27T04:58:46;101836.88;;;11.89;58.34
73220;BME280;61434;43.538;-5.688;2022-11-27T05:01:11;101830.97;;;11.84;58.36
73220;BME280;61434;43.538;-5.688;2022-11-27T05:03:36;101825.66;;;11.82;59.04
73220;BME280;61434;43.538;-5.688;2022-11-27T05:06:02;101824.56;;;11.72;59.15
73220;BME280;61434;43.538;-5.688;2022-11-27T05:08:28;101827.81;;;11.77;59.08
73220;BME280;61434;43.538;-5.688;2022-11-27T05:11:27;101810.75;;;11.76;59.29
73220;BME280;61434;43.538;-5.688;2022-11-27T05:13:45;101823.72;;;11.71;59.30
73220;BME280;61434;43.538;-5.688;2022-11-27T05:16:11;101824.69;;;11.70;59.76
73220;BME280;61434;43.538;-5.688;2022-11-27T05:18:36;101818.31;;;11.71;59.49
73220;BME280;61434;43.538;-5.688;2022-11-27T05:21:03;101808.03;;;11.76;59.61
73220;BME280;61434;43.538;-5.688;2022-11-27T05:23:29;101809.69;;;11.66;60.14
73220;BME280;61434;43.538;-5.688;2022-11-27T05:25:55;101801.47;;;11.68;60.08
73220;BME280;61434;43.538;-5.688;2022-11-27T05:28:20;101816.16;;;11.64;60.17
73220;BME280;61434;43.538;-5.688;2022-11-27T05:30:46;101816.75;;;11.56;60.86
73220;BME280;61434;43.538;-5.688;2022-11-27T05:33:11;101810.34;;;11.57;60.87
73220;BME280;61434;43.538;-5.688;2022-11-27T05:35:37;101809.41;;;11.45;61.23
73220;BME280;61434;43.538;-5.688;2022-11-27T05:38:02;101803.03;;;11.46;61.68
73220;BME280;61434;43.538;-5.688;2022-11-27T05:40:27;101797.50;;;11.61;61.26
73220;BME280;61434;43.538;-5.688;2022-11-27T05:42:53;101795.34;;;11.66;60.86
73220;BME280;61434;43.538;-5.688;2022-11-27T05:45:18;101794.41;;;11.41;61.79
73220;BME280;61434;43.538;-5.688;2022-11-27T05:47:44;101791.81;;;11.40;62.22
73220;BME280;61434;43.538;-5.688;2022-11-27T05:50:09;101792.78;;;11.51;61.54
73220;BME280;61434;43.538;-5.688;2022-11-27T05:52:34;101781.00;;;11.52;61.55
73220;BME280;61434;43.538;-5.688;2022-11-27T05:55:00;101771.13;;;11.40;61.86
73220;BME280;61434;43.538;-5.688;2022-11-27T05:57:25;101767.97;;;11.46;61.56
73220;BME280;61434;43.538;-5.688;2022-11-27T05:59:50;101774.34;;;11.45;61.85
73220;BME280;61434;43.538;-5.688;2022-11-27T06:02:16;101776.13;;;11.57;61.54
73220;BME280;61434;43.538;-5.688;2022-11-27T06:04:41;101775.16;;;11.59;61.45
73220;BME280;61434;43.538;-5.688;2022-11-27T06:07:06;101770.41;;;11.62;61.70
73220;BME280;61434;43.538;-5.688;2022-11-27T06:09:32;101777.00;;;11.58;61.52
73220;BME280;61434;43.538;-5.688;2022-11-27T06:11:57;101770.34;;;11.51;61.53
73220;BME280;61434;43.538;-5.688;2022-11-27T06:14:22;101763.97;;;11.52;61.90
73220;BME280;61434;43.538;-5.688;2022-11-27T06:16:48;101769.16;;;11.42;62.05
73220;BME280;61434;43.538;-5.688;2022-11-27T06:19:13;101781.91;;;11.40;62.11
73220;BME280;61434;43.538;-5.688;2022-11-27T06:21:38;101780.81;;;11.43;61.88
73220;BME280;61434;43.538;-5.688;2022-11-27T06:24:04;101778.97;;;11.56;61.28
73220;BME280;61434;43.538;-5.688;2022-11-27T06:26:30;101780.22;;;11.63;61.02
73220;BME280;61434;43.538;-5.688;2022-11-27T06:28:56;101784.56;;;11.66;60.93
73220;BME280;61434;43.538;-5.688;2022-11-27T06:31:23;101781.00;;;11.65;60.75
73220;BME280;61434;43.538;-5.688;2022-11-27T06:33:49;101783.09;;;11.73;60.76
73220;BME280;61434;43.538;-5.688;2022-11-27T06:36:15;101775.13;;;11.71;60.47
73220;BME280;61434;43.538;-5.688;2022-11-27T06:38:41;101777.09;;;11.69;60.70
73220;BME280;61434;43.538;-5.688;2022-11-27T06:41:08;101772.97;;;11.76;60.56
73220;BME280;61434;43.538;-5.688;2022-11-27T06:43:33;101780.63;;;11.82;60.44
73220;BME280;61434;43.538;-5.688;2022-11-27T06:45:59;101777.84;;;11.84;60.03
73220;BME280;61434;43.538;-5.688;2022-11-27T06:48:25;101786.56;;;11.75;60.88
73220;BME280;61434;43.538;-5.688;2022-11-27T06:50:51;101768.66;;;11.74;60.77
73220;BME280;61434;43.538;-5.688;2022-11-27T06:53:16;101769.56;;;11.62;60.94
73220;BME280;61434;43.538;-5.688;2022-11-27T06:55:41;101770.63;;;11.59;61.03
73220;BME280;61434;43.538;-5.688;2022-11-27T06:58:07;101775.34;;;11.68;61.19
73220;BME280;61434;43.538;-5.688;2022-11-27T07:00:32;101783.69;;;11.65;60.86
73220;BME280;61434;43.538;-5.688;2022-11-27T07:02:57;101787.78;;;11.58;61.16
73220;BME280;61434;43.538;-5.688;2022-11-27T07:05:23;101779.28;;;11.64;61.04
73220;BME280;61434;43.538;-5.688;2022-11-27T07:07:48;101793.50;;;11.66;61.35
73220;BME280;61434;43.538;-5.688;2022-11-27T07:10:14;101801.47;;;11.68;61.40
73220;BME280;61434;43.538;-5.688;2022-11-27T07:12:39;101799.97;;;11.64;61.21
73220;BME280;61434;43.538;-5.688;2022-11-27T07:15:04;101803.19;;;11.69;61.54
73220;BME280;61434;43.538;-5.688;2022-11-27T07:17:30;101807.41;;;11.73;60.91
73220;BME280;61434;43.538;-5.688;2022-11-27T07:19:55;101819.38;;;11.69;61.33
73220;BME280;61434;43.538;-5.688;2022-11-27T07:22:21;101816.59;;;11.70;61.37
73220;BME280;61434;43.538;-5.688;2022-11-27T07:24:46;101819.19;;;11.72;60.83
73220;BME280;61434;43.538;-5.688;2022-11-27T07:27:11;101821.31;;;11.79;60.76
73220;BME280;61434;43.538;-5.688;2022-11-27T07:29:36;101812.25;;;11.80;60.36
73220;BME280;61434;43.538;-5.688;2022-11-27T07:32:02;101820.28;;;11.69;60.86
73220;BME280;61434;43.538;-5.688;2022-11-27T07:34:27;101815.72;;;11.82;60.39
73220;BME280;61434;43.538;-5.688;2022-11-27T07:36:52;101812.38;;;11.79;60.38
73220;BME280;61434;43.538;-5.688;2022-11-27T07:39:18;101808.31;;;11.97;60.16
73220;BME280;61434;43.538;-5.688;2022-11-27T07:41:43;101809.66;;;11.92;59.97
73220;BME280;61434;43.538;-5.688;2022-11-27T07:44:08;101805.75;;;11.96;60.04
73220;BME280;61434;43.538;-5.688;2022-11-27T07:46:34;101812.88;;;11.97;60.13
73220;BME280;61434;43.538;-5.688;2022-11-27T07:48:59;101817.41;;;11.96;60.20
73220;BME280;61434;43.538;-5.688;2022-11-27T07:51:24;101818.50;;;11.94;60.49
73220;BME280;61434;43.538;-5.688;2022-11-27T07:53:50;101823.78;;;11.95;60.73
73220;BME280;61434;43.538;-5.688;2022-11-27T07:56:18;101824.28;;;12.13;60.35
73220;BME280;61434;43.538;-5.688;2022-11-27T07:58:44;101838.53;;;12.02;60.20
73220;BME280;61434;43.538;-5.688;2022-11-27T08:01:10;101828.34;;;11.95;60.72
73220;BME280;61434;43.538;-5.688;2022-11-27T08:03:36;101828.06;;;12.11;60.43
73220;BME280;61434;43.538;-5.688;2022-11-27T08:06:02;101823.91;;;11.94;61.17
73220;BME280;61434;43.538;-5.688;2022-11-27T08:08:27;101825.31;;;11.87;61.10
73220;BME280;61434;43.538;-5.688;2022-11-27T08:10:52;101829.94;;;11.97;61.00
73220;BME280;61434;43.538;-5.688;2022-11-27T08:13:18;101846.38;;;11.94;61.53
73220;BME280;61434;43.538;-5.688;2022-11-27T08:15:43;101825.22;;;11.88;61.31
73220;BME280;61434;43.538;-5.688;2022-11-27T08:18:10;101822.72;;;11.98;61.57
73220;BME280;61434;43.538;-5.688;2022-11-27T08:20:35;101819.22;;;12.09;61.16
73220;BME280;61434;43.538;-5.688;2022-11-27T08:23:00;101831.72;;;12.10;61.47
73220;BME280;61434;43.538;-5.688;2022-11-27T08:25:26;101825.41;;;11.98;61.13
73220;BME280;61434;43.538;-5.688;2022-11-27T08:27:51;101836.31;;;11.96;61.48
73220;BME280;61434;43.538;-5.688;2022-11-27T08:30:16;101833.06;;;12.04;61.18
73220;BME280;61434;43.538;-5.688;2022-11-27T08:32:42;101828.00;;;12.23;60.40
73220;BME280;61434;43.538;-5.688;2022-11-27T08:35:08;101833.19;;;12.26;60.23
73220;BME280;61434;43.538;-5.688;2022-11-27T08:37:33;101821.84;;;12.45;60.06
73220;BME280;61434;43.538;-5.688;2022-11-27T08:39:59;101824.44;;;12.47;60.08
73220;BME280;61434;43.538;-5.688;2022-11-27T08:42:24;101830.84;;;12.46;59.74
73220;BME280;61434;43.538;-5.688;2022-11-27T08:44:49;101840.16;;;12.42;60.31
73220;BME280;61434;43.538;-5.688;2022-11-27T08:47:15;101832.81;;;12.55;60.05
73220;BME280;61434;43.538;-5.688;2022-11-27T08:49:41;101830.44;;;12.74;59.77
73220;BME280;61434;43.538;-5.688;2022-11-27T08:52:07;101827.06;;;12.95;58.86
73220;BME280;61434;43.538;-5.688;2022-11-27T08:54:32;101822.44;;;13.08;58.41
73220;BME280;61434;43.538;-5.688;2022-11-27T08:56:58;101818.72;;;13.09;57.99
73220;BME280;61434;43.538;-5.688;2022-11-27T08:59:23;101818.25;;;13.15;58.05
73220;BME280;61434;43.538;-5.688;2022-11-27T09:01:48;101821.31;;;13.10;57.31
73220;BME280;61434;43.538;-5.688;2022-11-27T09:04:14;101813.19;;;13.10;57.54
73220;BME280;61434;43.538;-5.688;2022-11-27T09:06:39;101814.31;;;13.19;57.06
73220;BME280;61434;43.538;-5.688;2022-11-27T09:09:05;101816.56;;;13.25;57.19
73220;BME280;61434;43.538;-5.688;2022-11-27T09:11:30;101812.63;;;13.29;57.09
73220;BME280;61434;43.538;-5.688;2022-11-27T09:13:59;101806.22;;;13.30;57.23
73220;BME280;61434;43.538;-5.688;2022-11-27T09:16:25;101809.44;;;13.47;57.11
73220;BME280;61434;43.538;-5.688;2022-11-27T09:18:51;101800.56;;;13.45;56.45
73220;BME280;61434;43.538;-5.688;2022-11-27T09:21:17;101800.47;;;13.46;56.88
73220;BME280;61434;43.538;-5.688;2022-11-27T09:23:43;101800.72;;;13.32;56.73
73220;BME280;61434;43.538;-5.688;2022-11-27T09:26:09;101799.34;;;13.26;57.04
73220;BME280;61434;43.538;-5.688;2022-11-27T09:28:35;101780.63;;;13.46;56.67
73220;BME280;61434;43.538;-5.688;2022-11-27T09:31:01;101784.84;;;13.61;56.62
73220;BME280;61434;43.538;-5.688;2022-11-27T09:33:28;101780.03;;;13.53;56.63
73220;BME280;61434;43.538;-5.688;2022-11-27T09:35:54;101783.53;;;13.88;55.98
73220;BME280;61434;43.538;-5.688;2022-11-27T09:38:19;101779.34;;;14.27;54.25
73220;BME280;61434;43.538;-5.688;2022-11-27T09:40:47;101781.97;;;14.17;54.19
73220;BME280;61434;43.538;-5.688;2022-11-27T09:43:13;101775.16;;;15.18;52.20
73220;BME280;61434;43.538;-5.688;2022-11-27T09:45:43;101786.53;;;15.63;51.27
73220;BME280;61434;43.538;-5.688;2022-11-27T09:48:11;101782.19;;;15.51;51.53
73220;BME280;61434;43.538;-5.688;2022-11-27T09:50:41;101795.50;;;15.54;50.91
73220;BME280;61434;43.538;-5.688;2022-11-27T09:55:46;101805.13;;;15.37;52.44
73220;BME280;61434;43.538;-5.688;2022-11-27T10:00:38;101813.91;;;15.20;53.15
73220;BME280;61434;43.538;-5.688;2022-11-27T10:03:23;101803.81;;;15.31;53.06
73220;BME280;61434;43.538;-5.688;2022-11-27T10:05:59;101800.44;;;16.39;50.34
73220;BME280;61434;43.538;-5.688;2022-11-27T10:18:52;101784.53;;;16.34;50.02
73220;BME280;61434;43.538;-5.688;2022-11-27T10:26:39;101784.09;;;16.87;48.71
73220;BME280;61434;43.538;-5.688;2022-11-27T10:31:47;101797.41;;;16.23;50.73
73220;BME280;61434;43.538;-5.688;2022-11-27T10:37:00;101802.50;;;15.97;52.10
73220;BME280;61434;43.538;-5.688;2022-11-27T10:39:42;101792.78;;;15.94;52.09
73220;BME280;61434;43.538;-5.688;2022-11-27T10:42:18;101784.50;;;15.96;51.84
73220;BME280;61434;43.538;-5.688;2022-11-27T10:44:49;101782.28;;;15.70;52.51
73220;BME280;61434;43.538;-5.688;2022-11-27T10:47:15;101780.41;;;15.71;52.96
73220;BME280;61434;43.538;-5.688;2022-11-27T10:49:41;101774.88;;;15.72;53.14
73220;BME280;61434;43.538;-5.688;2022-11-27T10:52:13;101774.00;;;15.72;52.80
73220;BME280;61434;43.538;-5.688;2022-11-27T10:54:39;101770.47;;;15.90;52.05
73220;BME280;61434;43.538;-5.688;2022-11-27T10:59:38;101775.31;;;15.87;52.33
73220;BME280;61434;43.538;-5.688;2022-11-27T11:02:23;101774.34;;;16.17;51.88
73220;BME280;61434;43.538;-5.688;2022-11-27T11:04:49;101782.34;;;16.19;51.59
73220;BME280;61434;43.538;-5.688;2022-11-27T11:07:22;101777.75;;;16.00;52.33
73220;BME280;61434;43.538;-5.688;2022-11-27T11:09:48;101771.06;;;16.13;52.23
73220;BME280;61434;43.538;-5.688;2022-11-27T11:12:17;101781.75;;;15.86;53.19
73220;BME280;61434;43.538;-5.688;2022-11-27T11:14:51;101780.41;;;15.71;53.87
73220;BME280;61434;43.538;-5.688;2022-11-27T11:17:21;101798.03;;;15.76;54.11
73220;BME280;61434;43.538;-5.688;2022-11-27T11:19:48;101788.06;;;15.86;54.24
73220;BME280;61434;43.538;-5.688;2022-11-27T11:22:14;101795.91;;;15.89;53.94
73220;BME280;61434;43.538;-5.688;2022-11-27T11:24:43;101788.34;;;16.03;53.32
73220;BME280;61434;43.538;-5.688;2022-11-27T11:29:41;101777.88;;;15.88;54.78
73220;BME280;61434;43.538;-5.688;2022-11-27T11:32:11;101777.19;;;15.96;53.94
73220;BME280;61434;43.538;-5.688;2022-11-27T11:37:33;101745.72;;;15.94;54.55
73220;BME280;61434;43.538;-5.688;2022-11-27T11:40:00;101744.72;;;16.04;54.29
73220;BME280;61434;43.538;-5.688;2022-11-27T11:42:31;101744.88;;;16.03;54.47
73220;BME280;61434;43.538;-5.688;2022-11-27T11:45:04;101743.00;;;16.03;54.64
73220;BME280;61434;43.538;-5.688;2022-11-27T11:47:44;101742.44;;;16.00;55.23
73220;BME280;61434;43.538;-5.688;2022-11-27T11:50:56;101739.28;;;16.04;55.41
73220;BME280;61434;43.538;-5.688;2022-11-27T11:53:00;101736.28;;;15.98;56.25
73220;BME280;61434;43.538;-5.688;2022-11-27T11:55:53;101735.16;;;16.00;56.61
73220;BME280;61434;43.538;-5.688;2022-11-27T12:03:48;101715.41;;;15.88;57.01
73220;BME280;61434;43.538;-5.688;2022-11-27T12:06:20;101716.84;;;15.83;56.91
73220;BME280;61434;43.538;-5.688;2022-11-27T12:11:28;101711.97;;;15.86;57.03
73220;BME280;61434;43.538;-5.688;2022-11-27T12:14:00;101698.81;;;15.92;56.72
73220;BME280;61434;43.538;-5.688;2022-11-27T12:34:16;101688.38;;;16.06;57.91
73220;BME280;61434;43.538;-5.688;2022-11-27T12:36:59;101683.38;;;16.02;59.31
73220;BME280;61434;43.538;-5.688;2022-11-27T12:42:03;101684.66;;;16.07;60.29
73220;BME280;61434;43.538;-5.688;2022-11-27T12:49:56;101687.09;;;16.01;62.09
73220;BME280;61434;43.538;-5.688;2022-11-27T12:52:23;101678.66;;;16.04;62.45
73220;BME280;61434;43.538;-5.688;2022-11-27T12:54:56;101667.50;;;15.97;63.45
73220;BME280;61434;43.538;-5.688;2022-11-27T12:57:29;101662.66;;;16.01;64.01
73220;BME280;61434;43.538;-5.688;2022-11-27T12:59:59;101656.22;;;15.92;65.62
73220;BME280;61434;43.538;-5.688;2022-11-27T13:05:01;101656.34;;;15.81;67.38
73220;BME280;61434;43.538;-5.688;2022-11-27T13:10:02;101655.78;;;15.77;68.15
73220;BME280;61434;43.538;-5.688;2022-11-27T13:13:05;101653.34;;;15.84;68.06
73220;BME280;61434;43.538;-5.688;2022-11-27T13:17:48;101652.06;;;15.78;68.29
73220;BME280;61434;43.538;-5.688;2022-11-27T13:20:20;101648.75;;;15.75;68.63
73220;BME280;61434;43.538;-5.688;2022-11-27T13:22:46;101644.19;;;15.75;68.68
73220;BME280;61434;43.538;-5.688;2022-11-27T13:25:12;101643.22;;;15.76;68.23
73220;BME280;61434;43.538;-5.688;2022-11-27T13:27:45;101637.31;;;15.71;68.15
73220;BME280;61434;43.538;-5.688;2022-11-27T13:30:22;101641.63;;;15.74;68.10
73220;BME280;61434;43.538;-5.688;2022-11-27T13:32:49;101626.44;;;15.81;68.10
73220;BME280;61434;43.538;-5.688;2022-11-27T13:37:55;101626.19;;;15.74;66.88
73220;BME280;61434;43.538;-5.688;2022-11-27T13:40:21;101620.91;;;15.73;67.24
73220;BME280;61434;43.538;-5.688;2022-11-27T13:42:48;101608.59;;;15.78;67.93
73220;BME280;61434;43.538;-5.688;2022-11-27T13:45:27;101611.75;;;15.83;68.51
73220;BME280;61434;43.538;-5.688;2022-11-27T13:47:54;101615.03;;;15.87;69.04
73220;BME280;61434;43.538;-5.688;2022-11-27T13:50:21;101606.72;;;15.88;69.29
73220;BME280;61434;43.538;-5.688;2022-11-27T13:52:51;101608.75;;;15.86;69.49
73220;BME280;61434;43.538;-5.688;2022-11-27T13:58:13;101607.31;;;15.92;69.22
73220;BME280;61434;43.538;-5.688;2022-11-27T14:00:39;101613.03;;;15.89;69.95
73220;BME280;61434;43.538;-5.688;2022-11-27T14:03:06;101618.75;;;15.86;69.67
73220;BME280;61434;43.538;-5.688;2022-11-27T14:05:39;101620.47;;;15.87;69.88
73220;BME280;61434;43.538;-5.688;2022-11-27T14:08:14;101630.16;;;15.89;69.77
73220;BME280;61434;43.538;-5.688;2022-11-27T14:10:46;101632.63;;;15.93;69.41
73220;BME280;61434;43.538;-5.688;2022-11-27T14:13:12;101640.06;;;15.90;69.99
73220;BME280;61434;43.538;-5.688;2022-11-27T14:15:37;101644.63;;;15.90;70.09
73220;BME280;61434;43.538;-5.688;2022-11-27T14:18:04;101652.75;;;15.90;70.07
73220;BME280;61434;43.538;-5.688;2022-11-27T14:20:30;101664.50;;;15.90;69.98
73220;BME280;61434;43.538;-5.688;2022-11-27T14:22:57;101655.63;;;15.88;70.01